Weather observations for the past three days for
New Stuyahok
Imperial (Metric)
Date Time (akdt) Wind (mph) Vis. (mi.) Weather Sky Cond. Temperature (ºF) Relative Humidity Wind Chill (°F) Heat Index (°F) Pressure Precipitation (in)
Air Dwpt 6 hour altimeter (in) sea level (mb) 1 hr 3 hr 6 hr
Max. Min.
02 19:56 S 10 10.00 Overcast OVC036 55.9 43 62% 30.05 1017.9
02 18:56 SW 8 10.00 Overcast OVC028 57 46 67% 30.04 1017.9
02 17:56 S 6 10.00 Overcast OVC036 57.9 45 62% 30.04 1017.9
02 16:56 S 7 10.00 Overcast OVC044 57 42.1 58% 30.04 1017.7
02 15:56 SW 6 10.00 Overcast OVC048 55.9 39.9 57 45 55% 30.04 1017.6
02 14:56 SW 8 10.00 Overcast OVC060 55.9 41 57% 30.03 1017.5
02 13:56 S 8 10.00 Overcast OVC070 55 37 51% 30.04 1017.6
02 12:56 SE 3 10.00 Overcast OVC095 54 37.9 55% 30.05 1018.1
02 11:56 Calm 10.00 Mostly Cloudy BKN110 53.1 37.9 57% 30.02 1017.2
02 10:56 N 5 10.00 A Few Clouds FEW120 50 37.9 63% 49 30.02 1017.2
02 09:56 N 7 10.00 Fair CLR 45 37.9 46 39 77% 42 30 1016.5
02 08:56 N 5 10.00 Fair CLR 42.1 39 89% 40 29.99 1016.2
02 07:56 N 7 10.00 Fair CLR 39.9 39 97% 36 29.95 1014.8
02 06:56 N 6 10.00 Fair CLR 42.1 39 89% 39 29.95 1014.8
02 05:56 N 6 10.00 Fair CLR 42.1 41 96% 39 29.94 1014.2
02 04:56 NW 3 10.00 Fair CLR 44.1 42.1 93% 29.92 1013.6
02 03:56 N 3 10.00 Mostly Cloudy BKN110 46 43 50 46 89% 29.9 1013.1
02 02:56 W 6 10.00 Overcast OVC110 46 43 89% 44 29.89 1012.6
02 01:56 W 6 10.00 Overcast OVC120 46 43 89% 44 29.88 1012.3
02 00:56 W 6 10.00 Overcast OVC110 46 43 89% 44 29.88 1012.2
01 23:56 W 5 10.00 Partly Cloudy SCT110 46.9 43 86% 45 29.87 1012.0
01 22:56 W 6 10.00 Fair CLR 48.9 43 80% 47 29.86 1011.6
01 21:56 W 7 10.00 Partly Cloudy SCT110 50 42.1 57 50 74% 48 29.85 1011.4
01 20:56 W 5 10.00 Fair CLR 53.1 41 64% 29.84 1010.8
01 19:56 W 6 10.00 A Few Clouds FEW100 55 39.9 57% 29.84 1011.0
01 18:56 W 6 10.00 Fair CLR 55.9 39 53% 29.85 1011.1
01 17:56 N 6 10.00 A Few Clouds FEW120 55.9 36 47% 29.84 1011.1
01 16:56 N 6 10.00 Fair CLR 57 36 45% 29.84 1010.8
01 15:56 Vrbl 5 10.00 Fair CLR 55 36 55.9 43 49% 29.85 1011.2
01 14:56 Vrbl 7 10.00 Fair CLR 54 37 53% 29.84 1011.1
01 13:56 N 8 10.00 Fair CLR 52 36 55% 29.85 1011.2
01 12:56 N 6 10.00 Mostly Cloudy BKN120 51.1 37 59% 29.85 1011.3
01 11:56 N 6 10.00 Overcast OVC100 48.9 36 61% 47 29.86 1011.6
01 10:56 N 6 10.00 Overcast OVC100 45 37.9 77% 42 29.86 1011.7
01 09:56 N 6 10.00 A Few Clouds FEW100 43 37.9 43 39 82% 40 29.86 1011.7
01 08:56 N 7 10.00 Fair CLR 41 37 86% 37 29.86 1011.6
01 07:56 N 6 10.00 A Few Clouds FEW110 39.9 36 86% 36 29.86 1011.8
01 06:56 N 6 10.00 Overcast OVC110 39.9 36 86% 36 29.87 1012.1
01 05:56 N 5 10.00 Overcast OVC120 41 36 82% 38 29.87 1012.0
01 04:56 N 3 10.00 Fair CLR 41 36 82% 29.87 1012.1
01 03:56 NW 6 10.00 Partly Cloudy SCT120 41 37 46.9 41 86% 38 29.88 1012.3
01 02:56 N 3 10.00 Fair CLR 42.1 36 79% 29.88 1012.4
01 01:56 Calm 10.00 Fair CLR 43 36 76% 29.89 1012.7
01 00:56 NE 3 10.00 Fair CLR 44.1 36 73% 29.9 1013.1
31 23:56 NE 5 10.00 Fair CLR 46 36 68% 44 29.92 1013.8
31 22:56 N 3 10.00 Fair CLR 46 37 71% 29.93 1014.2
31 21:56 N 5 10.00 Fair CLR 46.9 37.9 55 46.9 71% 45 29.92 1013.9
31 20:56 N 6 10.00 Fair CLR 50 37 61% 48 29.92 1013.7
31 19:56 N 7 10.00 Fair CLR 52 36 55% 29.92 1013.5
31 18:56 N 10 G 17 10.00 Fair CLR 54 33.1 45% 29.92 1013.8
31 17:56 N 13 G 20 10.00 Fair CLR 55 35.1 47% 29.91 1013.4
31 16:56 N 13 G 18 10.00 Fair CLR 54 34 47% 29.91 1013.4
31 15:56 N 10 G 20 10.00 Fair CLR 53.1 35.1 53.1 43 51% 29.91 1013.4
31 14:56 N 13 G 17 10.00 Fair CLR 52 35.1 53% 29.91 1013.4
31 13:56 N 15 G 21 10.00 Fair CLR 50 34 54% 45 29.91 1013.5
31 12:56 N 13 10.00 Fair CLR 48.9 33.1 55% 44 29.92 1013.6
31 11:56 N 13 G 20 10.00 Fair CLR 46.9 34 61% 42 29.93 1013.9
31 10:56 N 9 10.00 Fair CLR 45 35.1 68% 41 29.92 1013.8
31 09:56 N 13 G 21 10.00 Fair CLR 43 36 44.1 39 76% 37 29.93 1013.9
31 08:56 N 7 10.00 Fair CLR 39 36 89% 35 29.91 1013.5
31 07:56 NE 7 10.00 Fair CLR 39 37 93% 35 29.91 1013.4
31 06:56 Calm 10.00 Mostly Cloudy BKN031 41 39 93% 29.91 1013.4
31 05:56 NE 6 10.00 Partly Cloudy SCT029 41 39.9 96% 38 29.91 1013.3
31 04:56 N 6 10.00 Fair CLR 42.1 41 96% 39 29.92 1013.8
31 03:56 N 5 10.00 Partly Cloudy FEW028 SCT043 44.1 42.1 48.9 42.1 93% 42 29.92 1013.8 0.01
31 02:56 NW 8 10.00 Fair CLR 43 41 93% 39 29.92 1013.7
31 01:56 W 9 10.00 Fair CLR 43 41 93% 38 29.92 1013.7
31 00:56 W 8 10.00 Fair CLR 43 41 93% 39 29.93 1014.1 0.01
30 23:56 W 9 10.00 Fair CLR 44.1 42.1 93% 40 29.93 1014.0
30 22:56 W 9 10.00 Fair CLR 46.9 43 86% 43 29.93 1014.2 0.01
30 21:56 W 6 10.00 Fair CLR 48.9 45 54 48.9 86% 47 29.94 1014.2 0.03
30 20:56 W 13 10.00 Mostly Cloudy BKN050 51.1 45 80% 29.93 1014.1
Date Time (akdt) Wind (mph) Vis. (mi.) Weather Sky Cond. Air Dwpt Max. Min. Relative Humidity Wind Chill (°F) Heat Index (°F) altimeter (in) sea level (mb) 1 hr 3 hr 6 hr
6 hour
Temperature (ºF) Pressure Precipitation (in)